sensor_id;sensor_type;location;lat;lon;timestamp;P1;durP1;ratioP1;P2;durP2;ratioP2
64915;SDS011;51427;-27.442;153.014;2023-03-23T00:01:20;6.40;;;1.75;;
64915;SDS011;51427;-27.442;153.014;2023-03-23T00:03:51;9.70;;;2.10;;
64915;SDS011;51427;-27.442;153.014;2023-03-23T00:06:23;7.50;;;1.58;;
64915;SDS011;51427;-27.442;153.014;2023-03-23T00:08:53;7.40;;;1.58;;
64915;SDS011;51427;-27.442;153.014;2023-03-23T00:11:26;6.85;;;1.70;;
64915;SDS011;51427;-27.442;153.014;2023-03-23T00:13:56;10.02;;;1.73;;
64915;SDS011;51427;-27.442;153.014;2023-03-23T00:16:27;9.73;;;1.80;;
64915;SDS011;51427;-27.442;153.014;2023-03-23T00:18:59;8.20;;;1.90;;
64915;SDS011;51427;-27.442;153.014;2023-03-23T00:21:32;10.73;;;1.88;;
64915;SDS011;51427;-27.442;153.014;2023-03-23T00:24:11;6.28;;;1.50;;
64915;SDS011;51427;-27.442;153.014;2023-03-23T00:26:44;11.55;;;2.03;;
64915;SDS011;51427;-27.442;153.014;2023-03-23T00:29:14;8.57;;;2.03;;
64915;SDS011;51427;-27.442;153.014;2023-03-23T00:31:44;8.75;;;1.98;;
64915;SDS011;51427;-27.442;153.014;2023-03-23T00:34:17;6.82;;;1.98;;
64915;SDS011;51427;-27.442;153.014;2023-03-23T00:36:51;7.70;;;2.00;;
64915;SDS011;51427;-27.442;153.014;2023-03-23T00:39:22;9.23;;;2.35;;
64915;SDS011;51427;-27.442;153.014;2023-03-23T00:41:52;8.88;;;1.88;;
64915;SDS011;51427;-27.442;153.014;2023-03-23T00:44:29;6.40;;;1.85;;
64915;SDS011;51427;-27.442;153.014;2023-03-23T00:46:59;7.93;;;2.00;;
64915;SDS011;51427;-27.442;153.014;2023-03-23T00:49:27;8.40;;;2.10;;
64915;SDS011;51427;-27.442;153.014;2023-03-23T00:51:56;8.48;;;1.85;;
64915;SDS011;51427;-27.442;153.014;2023-03-23T00:54:24;7.53;;;1.75;;
64915;SDS011;51427;-27.442;153.014;2023-03-23T00:56:52;12.85;;;1.90;;
64915;SDS011;51427;-27.442;153.014;2023-03-23T00:59:21;8.25;;;2.08;;
64915;SDS011;51427;-27.442;153.014;2023-03-23T01:01:49;7.10;;;1.75;;
64915;SDS011;51427;-27.442;153.014;2023-03-23T01:04:16;10.10;;;2.00;;
64915;SDS011;51427;-27.442;153.014;2023-03-23T01:06:47;12.00;;;2.17;;
64915;SDS011;51427;-27.442;153.014;2023-03-23T01:09:16;6.78;;;1.60;;
64915;SDS011;51427;-27.442;153.014;2023-03-23T01:11:47;6.82;;;1.75;;
64915;SDS011;51427;-27.442;153.014;2023-03-23T01:14:17;8.98;;;2.03;;
64915;SDS011;51427;-27.442;153.014;2023-03-23T01:16:46;8.82;;;2.17;;
64915;SDS011;51427;-27.442;153.014;2023-03-23T01:19:14;4.95;;;1.52;;
64915;SDS011;51427;-27.442;153.014;2023-03-23T01:21:41;9.10;;;2.03;;
64915;SDS011;51427;-27.442;153.014;2023-03-23T01:24:09;7.78;;;1.85;;
64915;SDS011;51427;-27.442;153.014;2023-03-23T01:26:36;9.00;;;1.65;;
64915;SDS011;51427;-27.442;153.014;2023-03-23T01:29:04;11.20;;;2.00;;
64915;SDS011;51427;-27.442;153.014;2023-03-23T01:31:32;4.38;;;1.42;;
64915;SDS011;51427;-27.442;153.014;2023-03-23T01:34:02;11.35;;;1.80;;
64915;SDS011;51427;-27.442;153.014;2023-03-23T01:36:30;7.82;;;1.50;;
64915;SDS011;51427;-27.442;153.014;2023-03-23T01:38:59;10.32;;;1.98;;
64915;SDS011;51427;-27.442;153.014;2023-03-23T01:41:31;7.95;;;1.98;;
64915;SDS011;51427;-27.442;153.014;2023-03-23T01:44:05;9.98;;;1.65;;
64915;SDS011;51427;-27.442;153.014;2023-03-23T01:46:35;9.60;;;1.67;;
64915;SDS011;51427;-27.442;153.014;2023-03-23T01:49:07;8.70;;;2.13;;
64915;SDS011;51427;-27.442;153.014;2023-03-23T01:51:54;7.22;;;2.20;;
64915;SDS011;51427;-27.442;153.014;2023-03-23T01:54:26;10.77;;;1.85;;
64915;SDS011;51427;-27.442;153.014;2023-03-23T01:59:28;8.75;;;1.92;;
64915;SDS011;51427;-27.442;153.014;2023-03-23T02:01:57;9.80;;;2.05;;
64915;SDS011;51427;-27.442;153.014;2023-03-23T02:04:26;5.68;;;1.52;;
64915;SDS011;51427;-27.442;153.014;2023-03-23T02:06:55;11.68;;;1.80;;
64915;SDS011;51427;-27.442;153.014;2023-03-23T02:09:26;9.00;;;2.17;;
64915;SDS011;51427;-27.442;153.014;2023-03-23T02:11:56;6.97;;;1.60;;
64915;SDS011;51427;-27.442;153.014;2023-03-23T02:14:24;8.90;;;1.73;;
64915;SDS011;51427;-27.442;153.014;2023-03-23T02:16:55;5.47;;;1.70;;
64915;SDS011;51427;-27.442;153.014;2023-03-23T02:22:23;7.63;;;1.65;;
64915;SDS011;51427;-27.442;153.014;2023-03-23T02:28:37;13.27;;;2.58;;
64915;SDS011;51427;-27.442;153.014;2023-03-23T02:36:56;5.45;;;1.52;;
64915;SDS011;51427;-27.442;153.014;2023-03-23T02:39:30;11.65;;;2.20;;
64915;SDS011;51427;-27.442;153.014;2023-03-23T02:42:08;7.10;;;2.15;;
64915;SDS011;51427;-27.442;153.014;2023-03-23T02:44:37;7.93;;;1.70;;
64915;SDS011;51427;-27.442;153.014;2023-03-23T02:47:09;9.93;;;2.28;;
64915;SDS011;51427;-27.442;153.014;2023-03-23T02:49:42;8.20;;;1.73;;
64915;SDS011;51427;-27.442;153.014;2023-03-23T02:52:15;7.43;;;1.98;;
64915;SDS011;51427;-27.442;153.014;2023-03-23T02:54:50;7.68;;;1.77;;
64915;SDS011;51427;-27.442;153.014;2023-03-23T02:57:21;6.90;;;1.70;;
64915;SDS011;51427;-27.442;153.014;2023-03-23T02:59:49;11.00;;;2.33;;
64915;SDS011;51427;-27.442;153.014;2023-03-23T03:02:18;5.75;;;1.80;;
64915;SDS011;51427;-27.442;153.014;2023-03-23T03:15:39;7.05;;;1.65;;
64915;SDS011;51427;-27.442;153.014;2023-03-23T03:18:22;7.38;;;1.80;;
64915;SDS011;51427;-27.442;153.014;2023-03-23T03:20:55;8.35;;;2.30;;
64915;SDS011;51427;-27.442;153.014;2023-03-23T03:23:28;8.90;;;2.03;;
64915;SDS011;51427;-27.442;153.014;2023-03-23T03:25:58;7.18;;;1.70;;
64915;SDS011;51427;-27.442;153.014;2023-03-23T03:28:30;9.05;;;1.73;;
64915;SDS011;51427;-27.442;153.014;2023-03-23T03:31:00;9.98;;;1.90;;
64915;SDS011;51427;-27.442;153.014;2023-03-23T03:33:30;9.57;;;1.83;;
64915;SDS011;51427;-27.442;153.014;2023-03-23T03:36:03;10.95;;;2.40;;
64915;SDS011;51427;-27.442;153.014;2023-03-23T03:38:41;7.43;;;1.70;;
64915;SDS011;51427;-27.442;153.014;2023-03-23T03:41:14;6.18;;;1.73;;
64915;SDS011;51427;-27.442;153.014;2023-03-23T03:43:43;9.90;;;2.20;;
64915;SDS011;51427;-27.442;153.014;2023-03-23T03:46:11;7.03;;;1.83;;
64915;SDS011;51427;-27.442;153.014;2023-03-23T03:48:38;12.18;;;1.73;;
64915;SDS011;51427;-27.442;153.014;2023-03-23T03:51:06;6.63;;;1.88;;
64915;SDS011;51427;-27.442;153.014;2023-03-23T03:53:34;15.18;;;2.25;;
64915;SDS011;51427;-27.442;153.014;2023-03-23T03:56:02;8.82;;;1.75;;
64915;SDS011;51427;-27.442;153.014;2023-03-23T03:58:30;6.40;;;1.35;;
64915;SDS011;51427;-27.442;153.014;2023-03-23T04:01:02;7.82;;;2.35;;
64915;SDS011;51427;-27.442;153.014;2023-03-23T04:03:30;7.68;;;2.15;;
64915;SDS011;51427;-27.442;153.014;2023-03-23T04:05:58;10.10;;;1.90;;
64915;SDS011;51427;-27.442;153.014;2023-03-23T04:08:26;10.50;;;1.98;;
64915;SDS011;51427;-27.442;153.014;2023-03-23T04:10:53;7.80;;;2.13;;
64915;SDS011;51427;-27.442;153.014;2023-03-23T04:13:22;9.93;;;2.15;;
64915;SDS011;51427;-27.442;153.014;2023-03-23T04:15:50;9.60;;;2.30;;
64915;SDS011;51427;-27.442;153.014;2023-03-23T04:18:18;7.75;;;1.73;;
64915;SDS011;51427;-27.442;153.014;2023-03-23T04:20:46;6.97;;;1.98;;
64915;SDS011;51427;-27.442;153.014;2023-03-23T04:23:18;10.07;;;1.88;;
64915;SDS011;51427;-27.442;153.014;2023-03-23T04:25:48;8.70;;;1.88;;
64915;SDS011;51427;-27.442;153.014;2023-03-23T04:28:17;9.13;;;1.55;;
64915;SDS011;51427;-27.442;153.014;2023-03-23T04:30:50;8.10;;;1.80;;
64915;SDS011;51427;-27.442;153.014;2023-03-23T04:33:20;8.40;;;1.90;;
64915;SDS011;51427;-27.442;153.014;2023-03-23T04:35:51;8.02;;;1.77;;
64915;SDS011;51427;-27.442;153.014;2023-03-23T04:38:20;8.15;;;1.83;;
64915;SDS011;51427;-27.442;153.014;2023-03-23T04:40:51;7.25;;;1.77;;
64915;SDS011;51427;-27.442;153.014;2023-03-23T04:43:20;9.45;;;2.08;;
64915;SDS011;51427;-27.442;153.014;2023-03-23T04:45:59;5.55;;;1.90;;
64915;SDS011;51427;-27.442;153.014;2023-03-23T04:48:29;10.57;;;2.03;;
64915;SDS011;51427;-27.442;153.014;2023-03-23T04:51:00;8.73;;;1.88;;
64915;SDS011;51427;-27.442;153.014;2023-03-23T04:53:32;7.85;;;2.17;;
64915;SDS011;51427;-27.442;153.014;2023-03-23T04:56:01;8.32;;;1.98;;
64915;SDS011;51427;-27.442;153.014;2023-03-23T04:58:29;5.45;;;1.73;;
64915;SDS011;51427;-27.442;153.014;2023-03-23T05:01:02;9.57;;;2.20;;
64915;SDS011;51427;-27.442;153.014;2023-03-23T05:03:30;6.85;;;1.80;;
64915;SDS011;51427;-27.442;153.014;2023-03-23T05:06:00;6.63;;;1.65;;
64915;SDS011;51427;-27.442;153.014;2023-03-23T05:08:29;6.97;;;1.60;;
64915;SDS011;51427;-27.442;153.014;2023-03-23T05:10:58;8.40;;;1.35;;
64915;SDS011;51427;-27.442;153.014;2023-03-23T05:13:27;7.25;;;1.50;;
64915;SDS011;51427;-27.442;153.014;2023-03-23T05:15:55;8.88;;;2.00;;
64915;SDS011;51427;-27.442;153.014;2023-03-23T05:18:23;8.88;;;1.98;;
64915;SDS011;51427;-27.442;153.014;2023-03-23T05:20:51;9.35;;;1.67;;
64915;SDS011;51427;-27.442;153.014;2023-03-23T05:23:19;8.55;;;2.20;;
64915;SDS011;51427;-27.442;153.014;2023-03-23T05:25:56;9.10;;;1.90;;
64915;SDS011;51427;-27.442;153.014;2023-03-23T05:28:28;8.63;;;1.92;;
64915;SDS011;51427;-27.442;153.014;2023-03-23T05:30:56;11.48;;;2.30;;
64915;SDS011;51427;-27.442;153.014;2023-03-23T05:33:24;9.25;;;2.25;;
64915;SDS011;51427;-27.442;153.014;2023-03-23T05:35:52;9.98;;;1.77;;
64915;SDS011;51427;-27.442;153.014;2023-03-23T05:38:20;7.43;;;1.63;;
64915;SDS011;51427;-27.442;153.014;2023-03-23T05:40:48;6.85;;;2.20;;
64915;SDS011;51427;-27.442;153.014;2023-03-23T05:43:15;6.72;;;1.77;;
64915;SDS011;51427;-27.442;153.014;2023-03-23T05:45:43;10.48;;;2.25;;
64915;SDS011;51427;-27.442;153.014;2023-03-23T05:48:11;8.25;;;1.98;;
64915;SDS011;51427;-27.442;153.014;2023-03-23T05:50:39;8.95;;;1.90;;
64915;SDS011;51427;-27.442;153.014;2023-03-23T05:53:06;8.60;;;2.33;;
64915;SDS011;51427;-27.442;153.014;2023-03-23T05:55:34;6.65;;;2.10;;
64915;SDS011;51427;-27.442;153.014;2023-03-23T05:58:02;9.30;;;1.98;;
64915;SDS011;51427;-27.442;153.014;2023-03-23T06:00:29;9.75;;;2.33;;
64915;SDS011;51427;-27.442;153.014;2023-03-23T06:02:58;10.65;;;2.20;;
64915;SDS011;51427;-27.442;153.014;2023-03-23T06:05:27;12.10;;;2.30;;
64915;SDS011;51427;-27.442;153.014;2023-03-23T06:07:54;9.02;;;1.95;;
64915;SDS011;51427;-27.442;153.014;2023-03-23T06:10:22;9.77;;;1.77;;
64915;SDS011;51427;-27.442;153.014;2023-03-23T06:12:50;10.15;;;1.70;;
64915;SDS011;51427;-27.442;153.014;2023-03-23T06:15:18;9.43;;;1.75;;
64915;SDS011;51427;-27.442;153.014;2023-03-23T06:17:46;10.45;;;2.38;;
64915;SDS011;51427;-27.442;153.014;2023-03-23T06:20:16;7.57;;;1.80;;
64915;SDS011;51427;-27.442;153.014;2023-03-23T06:22:43;10.88;;;2.30;;
64915;SDS011;51427;-27.442;153.014;2023-03-23T06:25:11;9.52;;;1.83;;
64915;SDS011;51427;-27.442;153.014;2023-03-23T06:27:39;6.30;;;1.67;;
64915;SDS011;51427;-27.442;153.014;2023-03-23T06:30:07;10.23;;;1.80;;
64915;SDS011;51427;-27.442;153.014;2023-03-23T06:32:35;8.50;;;1.55;;
64915;SDS011;51427;-27.442;153.014;2023-03-23T06:35:04;8.48;;;1.88;;
64915;SDS011;51427;-27.442;153.014;2023-03-23T06:37:35;9.65;;;2.13;;
64915;SDS011;51427;-27.442;153.014;2023-03-23T06:40:03;7.30;;;2.08;;
64915;SDS011;51427;-27.442;153.014;2023-03-23T06:42:35;9.70;;;2.08;;
64915;SDS011;51427;-27.442;153.014;2023-03-23T06:45:08;11.85;;;1.75;;
64915;SDS011;51427;-27.442;153.014;2023-03-23T06:47:35;8.88;;;2.22;;
64915;SDS011;51427;-27.442;153.014;2023-03-23T06:50:04;6.00;;;1.55;;
64915;SDS011;51427;-27.442;153.014;2023-03-23T06:52:38;11.35;;;1.83;;
64915;SDS011;51427;-27.442;153.014;2023-03-23T06:55:07;5.75;;;1.95;;
64915;SDS011;51427;-27.442;153.014;2023-03-23T06:57:34;8.85;;;1.73;;
64915;SDS011;51427;-27.442;153.014;2023-03-23T07:00:02;6.35;;;1.55;;
64915;SDS011;51427;-27.442;153.014;2023-03-23T07:02:40;8.00;;;1.48;;
64915;SDS011;51427;-27.442;153.014;2023-03-23T07:05:08;8.57;;;2.00;;
64915;SDS011;51427;-27.442;153.014;2023-03-23T07:07:37;7.65;;;1.50;;
64915;SDS011;51427;-27.442;153.014;2023-03-23T07:10:07;12.77;;;2.10;;
64915;SDS011;51427;-27.442;153.014;2023-03-23T07:12:36;10.13;;;1.63;;
64915;SDS011;51427;-27.442;153.014;2023-03-23T07:15:04;8.23;;;1.88;;
64915;SDS011;51427;-27.442;153.014;2023-03-23T07:17:35;9.65;;;2.10;;
64915;SDS011;51427;-27.442;153.014;2023-03-23T07:20:04;10.88;;;2.63;;
64915;SDS011;51427;-27.442;153.014;2023-03-23T07:22:33;10.23;;;2.13;;
64915;SDS011;51427;-27.442;153.014;2023-03-23T07:25:01;8.10;;;1.77;;
64915;SDS011;51427;-27.442;153.014;2023-03-23T07:27:28;7.60;;;2.10;;
64915;SDS011;51427;-27.442;153.014;2023-03-23T07:29:56;9.60;;;2.30;;
64915;SDS011;51427;-27.442;153.014;2023-03-23T07:32:24;9.02;;;2.42;;
64915;SDS011;51427;-27.442;153.014;2023-03-23T07:34:51;8.25;;;1.90;;
64915;SDS011;51427;-27.442;153.014;2023-03-23T07:37:19;7.63;;;2.05;;
64915;SDS011;51427;-27.442;153.014;2023-03-23T07:39:46;7.00;;;1.83;;
64915;SDS011;51427;-27.442;153.014;2023-03-23T07:42:14;7.47;;;1.95;;
64915;SDS011;51427;-27.442;153.014;2023-03-23T07:44:42;7.82;;;1.98;;
64915;SDS011;51427;-27.442;153.014;2023-03-23T07:47:10;7.32;;;1.90;;
64915;SDS011;51427;-27.442;153.014;2023-03-23T07:49:38;8.90;;;2.33;;
64915;SDS011;51427;-27.442;153.014;2023-03-23T07:52:05;5.13;;;2.00;;
64915;SDS011;51427;-27.442;153.014;2023-03-23T07:54:33;6.90;;;2.42;;
64915;SDS011;51427;-27.442;153.014;2023-03-23T07:57:01;6.45;;;2.17;;
64915;SDS011;51427;-27.442;153.014;2023-03-23T07:59:29;10.05;;;2.45;;
64915;SDS011;51427;-27.442;153.014;2023-03-23T08:01:57;14.65;;;2.67;;
64915;SDS011;51427;-27.442;153.014;2023-03-23T08:04:25;11.68;;;2.60;;
64915;SDS011;51427;-27.442;153.014;2023-03-23T08:06:53;6.88;;;2.08;;
64915;SDS011;51427;-27.442;153.014;2023-03-23T08:09:20;11.07;;;2.55;;
64915;SDS011;51427;-27.442;153.014;2023-03-23T08:11:48;9.15;;;2.67;;
64915;SDS011;51427;-27.442;153.014;2023-03-23T08:14:17;9.30;;;3.20;;
64915;SDS011;51427;-27.442;153.014;2023-03-23T08:16:45;12.23;;;3.17;;
64915;SDS011;51427;-27.442;153.014;2023-03-23T08:19:13;8.00;;;2.58;;
64915;SDS011;51427;-27.442;153.014;2023-03-23T08:21:41;10.95;;;2.70;;
64915;SDS011;51427;-27.442;153.014;2023-03-23T08:24:09;10.23;;;2.85;;
64915;SDS011;51427;-27.442;153.014;2023-03-23T08:26:37;10.82;;;3.10;;
64915;SDS011;51427;-27.442;153.014;2023-03-23T08:29:05;11.38;;;2.70;;
64915;SDS011;51427;-27.442;153.014;2023-03-23T08:31:33;7.75;;;2.58;;
64915;SDS011;51427;-27.442;153.014;2023-03-23T08:34:01;5.75;;;2.33;;
64915;SDS011;51427;-27.442;153.014;2023-03-23T08:36:31;7.18;;;2.58;;
64915;SDS011;51427;-27.442;153.014;2023-03-23T08:38:59;11.15;;;3.10;;
64915;SDS011;51427;-27.442;153.014;2023-03-23T08:41:28;9.30;;;2.92;;
64915;SDS011;51427;-27.442;153.014;2023-03-23T08:43:56;9.27;;;2.78;;
64915;SDS011;51427;-27.442;153.014;2023-03-23T08:46:24;7.38;;;2.60;;
64915;SDS011;51427;-27.442;153.014;2023-03-23T08:48:51;9.02;;;3.15;;
64915;SDS011;51427;-27.442;153.014;2023-03-23T08:51:20;8.00;;;2.78;;
64915;SDS011;51427;-27.442;153.014;2023-03-23T08:53:47;7.40;;;2.10;;
64915;SDS011;51427;-27.442;153.014;2023-03-23T08:56:16;7.65;;;2.85;;
64915;SDS011;51427;-27.442;153.014;2023-03-23T08:58:44;12.63;;;3.67;;
64915;SDS011;51427;-27.442;153.014;2023-03-23T09:01:13;7.45;;;2.90;;
64915;SDS011;51427;-27.442;153.014;2023-03-23T09:03:41;10.43;;;3.13;;
64915;SDS011;51427;-27.442;153.014;2023-03-23T09:06:09;11.27;;;3.08;;
64915;SDS011;51427;-27.442;153.014;2023-03-23T09:08:38;11.43;;;2.63;;
64915;SDS011;51427;-27.442;153.014;2023-03-23T09:11:07;12.27;;;2.55;;
64915;SDS011;51427;-27.442;153.014;2023-03-23T09:13:36;7.35;;;2.40;;
64915;SDS011;51427;-27.442;153.014;2023-03-23T09:16:05;9.77;;;2.90;;
64915;SDS011;51427;-27.442;153.014;2023-03-23T09:18:34;8.25;;;2.67;;
64915;SDS011;51427;-27.442;153.014;2023-03-23T09:21:02;5.25;;;2.22;;
64915;SDS011;51427;-27.442;153.014;2023-03-23T09:23:30;9.55;;;3.25;;
64915;SDS011;51427;-27.442;153.014;2023-03-23T09:26:02;10.10;;;3.42;;
64915;SDS011;51427;-27.442;153.014;2023-03-23T09:28:30;8.80;;;2.97;;
64915;SDS011;51427;-27.442;153.014;2023-03-23T09:30:58;10.07;;;2.72;;
64915;SDS011;51427;-27.442;153.014;2023-03-23T09:33:25;7.63;;;2.85;;
64915;SDS011;51427;-27.442;153.014;2023-03-23T09:35:58;9.05;;;2.75;;
64915;SDS011;51427;-27.442;153.014;2023-03-23T09:38:28;8.55;;;2.70;;
64915;SDS011;51427;-27.442;153.014;2023-03-23T09:41:12;9.60;;;2.33;;
64915;SDS011;51427;-27.442;153.014;2023-03-23T09:50:07;10.25;;;2.20;;
64915;SDS011;51427;-27.442;153.014;2023-03-23T09:52:28;6.38;;;2.00;;
64915;SDS011;51427;-27.442;153.014;2023-03-23T09:57:52;8.57;;;2.00;;
64915;SDS011;51427;-27.442;153.014;2023-03-23T10:04:01;10.68;;;2.45;;
64915;SDS011;51427;-27.442;153.014;2023-03-23T10:06:35;8.45;;;2.00;;
64915;SDS011;51427;-27.442;153.014;2023-03-23T10:09:03;7.78;;;2.30;;
64915;SDS011;51427;-27.442;153.014;2023-03-23T10:11:59;10.43;;;3.47;;
64915;SDS011;51427;-27.442;153.014;2023-03-23T10:14:49;10.88;;;2.55;;
64915;SDS011;51427;-27.442;153.014;2023-03-23T10:17:30;5.40;;;2.30;;
64915;SDS011;51427;-27.442;153.014;2023-03-23T10:20:09;13.48;;;2.80;;
64915;SDS011;51427;-27.442;153.014;2023-03-23T10:22:51;8.40;;;2.47;;
64915;SDS011;51427;-27.442;153.014;2023-03-23T10:25:28;7.82;;;2.45;;
64915;SDS011;51427;-27.442;153.014;2023-03-23T10:28:13;9.43;;;2.85;;
64915;SDS011;51427;-27.442;153.014;2023-03-23T10:30:55;10.40;;;3.50;;
64915;SDS011;51427;-27.442;153.014;2023-03-23T10:39:00;11.23;;;3.50;;
64915;SDS011;51427;-27.442;153.014;2023-03-23T10:41:32;11.20;;;3.85;;
64915;SDS011;51427;-27.442;153.014;2023-03-23T10:43:59;10.00;;;3.30;;
64915;SDS011;51427;-27.442;153.014;2023-03-23T10:46:34;8.85;;;2.80;;
64915;SDS011;51427;-27.442;153.014;2023-03-23T10:49:18;9.90;;;2.85;;
64915;SDS011;51427;-27.442;153.014;2023-03-23T10:54:46;7.07;;;2.45;;
64915;SDS011;51427;-27.442;153.014;2023-03-23T10:57:26;9.27;;;3.00;;
64915;SDS011;51427;-27.442;153.014;2023-03-23T11:00:28;7.78;;;2.40;;
64915;SDS011;51427;-27.442;153.014;2023-03-23T11:03:03;9.50;;;2.45;;
64915;SDS011;51427;-27.442;153.014;2023-03-23T11:05:40;10.82;;;2.35;;
64915;SDS011;51427;-27.442;153.014;2023-03-23T11:08:15;11.05;;;2.95;;
64915;SDS011;51427;-27.442;153.014;2023-03-23T11:10:55;11.23;;;3.10;;
64915;SDS011;51427;-27.442;153.014;2023-03-23T11:13:31;8.70;;;4.00;;
64915;SDS011;51427;-27.442;153.014;2023-03-23T11:15:59;11.93;;;3.92;;
64915;SDS011;51427;-27.442;153.014;2023-03-23T11:18:48;13.68;;;3.53;;
64915;SDS011;51427;-27.442;153.014;2023-03-23T11:21:15;9.18;;;3.08;;
64915;SDS011;51427;-27.442;153.014;2023-03-23T11:23:43;11.65;;;3.63;;
64915;SDS011;51427;-27.442;153.014;2023-03-23T11:26:27;11.27;;;3.70;;
64915;SDS011;51427;-27.442;153.014;2023-03-23T11:29:10;10.40;;;3.70;;
64915;SDS011;51427;-27.442;153.014;2023-03-23T11:34:40;10.60;;;3.08;;
64915;SDS011;51427;-27.442;153.014;2023-03-23T11:40:17;7.82;;;3.78;;
64915;SDS011;51427;-27.442;153.014;2023-03-23T11:42:43;8.30;;;3.13;;
64915;SDS011;51427;-27.442;153.014;2023-03-23T11:45:20;10.77;;;2.70;;
64915;SDS011;51427;-27.442;153.014;2023-03-23T11:51:02;8.95;;;2.92;;
64915;SDS011;51427;-27.442;153.014;2023-03-23T11:53:37;10.35;;;3.22;;
64915;SDS011;51427;-27.442;153.014;2023-03-23T11:56:35;14.77;;;4.05;;
64915;SDS011;51427;-27.442;153.014;2023-03-23T11:59:12;9.15;;;3.35;;
64915;SDS011;51427;-27.442;153.014;2023-03-23T12:07:31;8.73;;;2.92;;
64915;SDS011;51427;-27.442;153.014;2023-03-23T12:10:21;7.93;;;3.35;;
64915;SDS011;51427;-27.442;153.014;2023-03-23T12:18:41;8.77;;;2.70;;
64915;SDS011;51427;-27.442;153.014;2023-03-23T12:21:15;12.98;;;2.60;;
64915;SDS011;51427;-27.442;153.014;2023-03-23T12:37:21;12.15;;;3.80;;
64915;SDS011;51427;-27.442;153.014;2023-03-23T12:48:17;8.95;;;2.80;;
64915;SDS011;51427;-27.442;153.014;2023-03-23T12:51:03;10.05;;;2.92;;
64915;SDS011;51427;-27.442;153.014;2023-03-23T12:53:38;11.13;;;2.40;;
64915;SDS011;51427;-27.442;153.014;2023-03-23T13:01:33;12.63;;;2.60;;
64915;SDS011;51427;-27.442;153.014;2023-03-23T13:04:17;6.93;;;2.33;;
64915;SDS011;51427;-27.442;153.014;2023-03-23T13:06:53;9.13;;;2.30;;
64915;SDS011;51427;-27.442;153.014;2023-03-23T13:09:25;5.68;;;2.45;;
64915;SDS011;51427;-27.442;153.014;2023-03-23T13:12:20;9.95;;;2.58;;
64915;SDS011;51427;-27.442;153.014;2023-03-23T13:17:44;6.95;;;2.10;;
64915;SDS011;51427;-27.442;153.014;2023-03-23T13:23:13;7.05;;;2.20;;
64915;SDS011;51427;-27.442;153.014;2023-03-23T13:28:24;8.90;;;2.20;;
64915;SDS011;51427;-27.442;153.014;2023-03-23T13:30:55;6.90;;;2.13;;
64915;SDS011;51427;-27.442;153.014;2023-03-23T13:33:46;5.30;;;2.03;;
64915;SDS011;51427;-27.442;153.014;2023-03-23T13:36:25;8.40;;;2.28;;
64915;SDS011;51427;-27.442;153.014;2023-03-23T13:39:00;6.05;;;2.22;;
64915;SDS011;51427;-27.442;153.014;2023-03-23T13:41:33;6.18;;;2.22;;
64915;SDS011;51427;-27.442;153.014;2023-03-23T13:44:16;8.45;;;2.13;;
64915;SDS011;51427;-27.442;153.014;2023-03-23T13:50:03;7.18;;;1.95;;
64915;SDS011;51427;-27.442;153.014;2023-03-23T13:55:19;10.25;;;2.60;;
64915;SDS011;51427;-27.442;153.014;2023-03-23T14:05:39;6.68;;;1.75;;
64915;SDS011;51427;-27.442;153.014;2023-03-23T14:11:27;5.82;;;1.60;;
64915;SDS011;51427;-27.442;153.014;2023-03-23T14:16:26;4.78;;;1.73;;
64915;SDS011;51427;-27.442;153.014;2023-03-23T14:22:04;7.15;;;2.10;;
64915;SDS011;51427;-27.442;153.014;2023-03-23T14:24:41;5.78;;;1.50;;
64915;SDS011;51427;-27.442;153.014;2023-03-23T14:27:10;8.05;;;1.50;;
64915;SDS011;51427;-27.442;153.014;2023-03-23T14:30:02;10.10;;;2.17;;
64915;SDS011;51427;-27.442;153.014;2023-03-23T14:32:34;8.73;;;1.90;;
64915;SDS011;51427;-27.442;153.014;2023-03-23T14:35:08;10.27;;;1.63;;
64915;SDS011;51427;-27.442;153.014;2023-03-23T14:37:47;6.32;;;1.52;;
64915;SDS011;51427;-27.442;153.014;2023-03-23T14:40:17;9.20;;;2.05;;
64915;SDS011;51427;-27.442;153.014;2023-03-23T14:42:45;3.60;;;1.50;;
64915;SDS011;51427;-27.442;153.014;2023-03-23T14:45:17;9.85;;;1.60;;
64915;SDS011;51427;-27.442;153.014;2023-03-23T14:47:50;10.18;;;1.90;;
64915;SDS011;51427;-27.442;153.014;2023-03-23T14:56:08;6.80;;;2.00;;
64915;SDS011;51427;-27.442;153.014;2023-03-23T14:58:47;6.03;;;1.63;;
64915;SDS011;51427;-27.442;153.014;2023-03-23T15:01:18;6.70;;;1.67;;
64915;SDS011;51427;-27.442;153.014;2023-03-23T15:06:29;5.57;;;1.55;;
64915;SDS011;51427;-27.442;153.014;2023-03-23T15:09:04;8.32;;;2.13;;
64915;SDS011;51427;-27.442;153.014;2023-03-23T15:11:37;4.25;;;1.60;;
64915;SDS011;51427;-27.442;153.014;2023-03-23T15:14:08;6.40;;;1.65;;
64915;SDS011;51427;-27.442;153.014;2023-03-23T15:16:52;7.07;;;1.45;;
64915;SDS011;51427;-27.442;153.014;2023-03-23T15:19:26;7.80;;;2.35;;
64915;SDS011;51427;-27.442;153.014;2023-03-23T15:22:06;4.88;;;1.33;;
64915;SDS011;51427;-27.442;153.014;2023-03-23T15:25:03;8.77;;;1.70;;
64915;SDS011;51427;-27.442;153.014;2023-03-23T15:27:39;6.75;;;1.63;;
64915;SDS011;51427;-27.442;153.014;2023-03-23T15:33:03;8.68;;;2.03;;
64915;SDS011;51427;-27.442;153.014;2023-03-23T15:35:37;6.15;;;1.73;;
64915;SDS011;51427;-27.442;153.014;2023-03-23T15:38:23;8.90;;;2.67;;
64915;SDS011;51427;-27.442;153.014;2023-03-23T15:40:56;10.30;;;1.98;;
64915;SDS011;51427;-27.442;153.014;2023-03-23T15:43:26;6.97;;;1.88;;
64915;SDS011;51427;-27.442;153.014;2023-03-23T15:45:58;6.55;;;1.70;;
64915;SDS011;51427;-27.442;153.014;2023-03-23T15:48:30;5.30;;;1.70;;
64915;SDS011;51427;-27.442;153.014;2023-03-23T15:50:59;7.93;;;1.50;;
64915;SDS011;51427;-27.442;153.014;2023-03-23T15:53:34;7.93;;;1.70;;
64915;SDS011;51427;-27.442;153.014;2023-03-23T15:56:04;9.35;;;2.00;;
64915;SDS011;51427;-27.442;153.014;2023-03-23T15:58:34;5.65;;;1.55;;
64915;SDS011;51427;-27.442;153.014;2023-03-23T16:01:03;4.45;;;1.52;;
64915;SDS011;51427;-27.442;153.014;2023-03-23T16:03:47;6.25;;;1.90;;
64915;SDS011;51427;-27.442;153.014;2023-03-23T16:06:18;6.80;;;1.58;;
64915;SDS011;51427;-27.442;153.014;2023-03-23T16:08:48;4.40;;;1.92;;
64915;SDS011;51427;-27.442;153.014;2023-03-23T16:11:16;5.40;;;1.42;;
64915;SDS011;51427;-27.442;153.014;2023-03-23T16:13:44;8.32;;;1.92;;
64915;SDS011;51427;-27.442;153.014;2023-03-23T16:16:20;4.38;;;1.35;;
64915;SDS011;51427;-27.442;153.014;2023-03-23T16:19:02;6.45;;;1.42;;
64915;SDS011;51427;-27.442;153.014;2023-03-23T16:21:31;6.90;;;1.30;;
64915;SDS011;51427;-27.442;153.014;2023-03-23T16:23:59;7.68;;;1.77;;
64915;SDS011;51427;-27.442;153.014;2023-03-23T16:26:27;8.23;;;1.63;;
64915;SDS011;51427;-27.442;153.014;2023-03-23T16:28:54;8.80;;;1.73;;
64915;SDS011;51427;-27.442;153.014;2023-03-23T16:31:22;5.78;;;1.42;;
64915;SDS011;51427;-27.442;153.014;2023-03-23T16:33:49;7.00;;;1.90;;
64915;SDS011;51427;-27.442;153.014;2023-03-23T16:36:17;3.45;;;1.45;;
64915;SDS011;51427;-27.442;153.014;2023-03-23T16:38:45;12.98;;;2.10;;
64915;SDS011;51427;-27.442;153.014;2023-03-23T16:41:12;7.28;;;2.00;;
64915;SDS011;51427;-27.442;153.014;2023-03-23T16:43:41;5.13;;;1.70;;
64915;SDS011;51427;-27.442;153.014;2023-03-23T16:46:08;7.15;;;1.65;;
64915;SDS011;51427;-27.442;153.014;2023-03-23T16:48:38;7.13;;;1.50;;